sensor_id;sensor_type;location;lat;lon;timestamp;P1;durP1;ratioP1;P2;durP2;ratioP2
66298;SDS011;53098;47.658;8.578;2023-12-20T00:00:48;3.55;;;1.48;;
66298;SDS011;53098;47.658;8.578;2023-12-20T00:03:13;4.38;;;1.65;;
66298;SDS011;53098;47.658;8.578;2023-12-20T00:05:39;3.67;;;1.55;;
66298;SDS011;53098;47.658;8.578;2023-12-20T00:08:04;6.28;;;1.70;;
66298;SDS011;53098;47.658;8.578;2023-12-20T00:10:30;3.88;;;1.63;;
66298;SDS011;53098;47.658;8.578;2023-12-20T00:12:55;3.88;;;1.52;;
66298;SDS011;53098;47.658;8.578;2023-12-20T00:15:20;3.90;;;1.67;;
66298;SDS011;53098;47.658;8.578;2023-12-20T00:17:46;4.10;;;1.90;;
66298;SDS011;53098;47.658;8.578;2023-12-20T00:20:11;3.97;;;1.67;;
66298;SDS011;53098;47.658;8.578;2023-12-20T00:22:37;7.10;;;2.95;;
66298;SDS011;53098;47.658;8.578;2023-12-20T00:25:03;5.63;;;2.10;;
66298;SDS011;53098;47.658;8.578;2023-12-20T00:27:28;6.20;;;2.08;;
66298;SDS011;53098;47.658;8.578;2023-12-20T00:29:54;5.43;;;2.42;;
66298;SDS011;53098;47.658;8.578;2023-12-20T00:32:19;5.85;;;2.42;;
66298;SDS011;53098;47.658;8.578;2023-12-20T00:34:44;6.40;;;2.47;;
66298;SDS011;53098;47.658;8.578;2023-12-20T00:37:10;6.53;;;2.33;;
66298;SDS011;53098;47.658;8.578;2023-12-20T00:39:35;6.13;;;2.58;;
66298;SDS011;53098;47.658;8.578;2023-12-20T00:42:01;7.78;;;3.20;;
66298;SDS011;53098;47.658;8.578;2023-12-20T00:44:26;7.25;;;3.03;;
66298;SDS011;53098;47.658;8.578;2023-12-20T00:46:51;8.10;;;3.15;;
66298;SDS011;53098;47.658;8.578;2023-12-20T00:49:17;7.93;;;3.42;;
66298;SDS011;53098;47.658;8.578;2023-12-20T00:51:42;6.97;;;3.25;;
66298;SDS011;53098;47.658;8.578;2023-12-20T00:54:08;6.80;;;2.80;;
66298;SDS011;53098;47.658;8.578;2023-12-20T00:56:33;8.10;;;3.28;;
66298;SDS011;53098;47.658;8.578;2023-12-20T00:58:58;8.38;;;3.25;;
66298;SDS011;53098;47.658;8.578;2023-12-20T01:01:24;7.13;;;3.38;;
66298;SDS011;53098;47.658;8.578;2023-12-20T01:03:49;6.28;;;2.88;;
66298;SDS011;53098;47.658;8.578;2023-12-20T01:06:14;6.47;;;2.90;;
66298;SDS011;53098;47.658;8.578;2023-12-20T01:08:40;7.63;;;3.53;;
66298;SDS011;53098;47.658;8.578;2023-12-20T01:11:05;6.72;;;2.88;;
66298;SDS011;53098;47.658;8.578;2023-12-20T01:13:31;8.20;;;3.10;;
66298;SDS011;53098;47.658;8.578;2023-12-20T01:15:56;6.70;;;3.13;;
66298;SDS011;53098;47.658;8.578;2023-12-20T01:18:21;8.52;;;3.53;;
66298;SDS011;53098;47.658;8.578;2023-12-20T01:20:47;8.50;;;3.97;;
66298;SDS011;53098;47.658;8.578;2023-12-20T01:23:12;8.07;;;3.38;;
66298;SDS011;53098;47.658;8.578;2023-12-20T01:25:38;8.65;;;3.20;;
66298;SDS011;53098;47.658;8.578;2023-12-20T01:28:04;7.55;;;3.55;;
66298;SDS011;53098;47.658;8.578;2023-12-20T01:30:29;8.48;;;3.78;;
66298;SDS011;53098;47.658;8.578;2023-12-20T01:32:55;8.40;;;3.35;;
66298;SDS011;53098;47.658;8.578;2023-12-20T01:35:20;8.65;;;4.00;;
66298;SDS011;53098;47.658;8.578;2023-12-20T01:37:46;8.68;;;3.60;;
66298;SDS011;53098;47.658;8.578;2023-12-20T01:40:11;9.82;;;4.50;;
66298;SDS011;53098;47.658;8.578;2023-12-20T01:42:36;9.07;;;4.45;;
66298;SDS011;53098;47.658;8.578;2023-12-20T01:45:02;10.25;;;5.15;;
66298;SDS011;53098;47.658;8.578;2023-12-20T01:47:28;10.38;;;4.95;;
66298;SDS011;53098;47.658;8.578;2023-12-20T01:49:53;9.65;;;4.47;;
66298;SDS011;53098;47.658;8.578;2023-12-20T01:52:19;10.65;;;4.70;;
66298;SDS011;53098;47.658;8.578;2023-12-20T01:54:45;11.73;;;5.22;;
66298;SDS011;53098;47.658;8.578;2023-12-20T01:57:12;11.13;;;5.03;;
66298;SDS011;53098;47.658;8.578;2023-12-20T01:59:39;11.45;;;4.70;;
66298;SDS011;53098;47.658;8.578;2023-12-20T02:02:05;9.60;;;4.75;;
66298;SDS011;53098;47.658;8.578;2023-12-20T02:04:32;9.85;;;4.90;;
66298;SDS011;53098;47.658;8.578;2023-12-20T02:06:57;9.45;;;4.90;;
66298;SDS011;53098;47.658;8.578;2023-12-20T02:09:24;11.18;;;5.22;;
66298;SDS011;53098;47.658;8.578;2023-12-20T02:11:49;10.52;;;5.40;;
66298;SDS011;53098;47.658;8.578;2023-12-20T02:14:15;9.70;;;4.85;;
66298;SDS011;53098;47.658;8.578;2023-12-20T02:16:40;9.65;;;4.30;;
66298;SDS011;53098;47.658;8.578;2023-12-20T02:19:07;11.65;;;5.50;;
66298;SDS011;53098;47.658;8.578;2023-12-20T02:21:38;12.20;;;5.53;;
66298;SDS011;53098;47.658;8.578;2023-12-20T02:24:03;11.93;;;5.28;;
66298;SDS011;53098;47.658;8.578;2023-12-20T02:26:29;12.70;;;5.38;;
66298;SDS011;53098;47.658;8.578;2023-12-20T02:28:55;9.25;;;4.68;;
66298;SDS011;53098;47.658;8.578;2023-12-20T02:31:21;11.05;;;5.63;;
66298;SDS011;53098;47.658;8.578;2023-12-20T02:33:47;9.85;;;5.00;;
66298;SDS011;53098;47.658;8.578;2023-12-20T02:36:12;10.35;;;5.07;;
66298;SDS011;53098;47.658;8.578;2023-12-20T02:38:37;11.18;;;5.72;;
66298;SDS011;53098;47.658;8.578;2023-12-20T02:41:03;13.10;;;5.80;;
66298;SDS011;53098;47.658;8.578;2023-12-20T02:43:28;11.55;;;5.25;;
66298;SDS011;53098;47.658;8.578;2023-12-20T02:45:54;12.27;;;6.50;;
66298;SDS011;53098;47.658;8.578;2023-12-20T02:48:19;11.13;;;5.32;;
66298;SDS011;53098;47.658;8.578;2023-12-20T02:50:45;12.38;;;5.40;;
66298;SDS011;53098;47.658;8.578;2023-12-20T02:53:12;9.73;;;5.00;;
66298;SDS011;53098;47.658;8.578;2023-12-20T02:55:37;9.98;;;5.18;;
66298;SDS011;53098;47.658;8.578;2023-12-20T02:58:03;9.30;;;4.57;;
66298;SDS011;53098;47.658;8.578;2023-12-20T03:00:28;10.02;;;4.75;;
66298;SDS011;53098;47.658;8.578;2023-12-20T03:02:53;11.07;;;4.80;;
66298;SDS011;53098;47.658;8.578;2023-12-20T03:05:19;11.00;;;4.65;;
66298;SDS011;53098;47.658;8.578;2023-12-20T03:07:44;11.52;;;4.90;;
66298;SDS011;53098;47.658;8.578;2023-12-20T03:10:10;11.65;;;5.68;;
66298;SDS011;53098;47.658;8.578;2023-12-20T03:12:35;12.50;;;5.57;;
66298;SDS011;53098;47.658;8.578;2023-12-20T03:15:00;13.02;;;6.20;;
66298;SDS011;53098;47.658;8.578;2023-12-20T03:17:26;12.77;;;5.63;;
66298;SDS011;53098;47.658;8.578;2023-12-20T03:19:51;12.68;;;5.82;;
66298;SDS011;53098;47.658;8.578;2023-12-20T03:22:16;14.23;;;6.57;;
66298;SDS011;53098;47.658;8.578;2023-12-20T03:24:42;15.40;;;6.72;;
66298;SDS011;53098;47.658;8.578;2023-12-20T03:27:07;14.50;;;6.38;;
66298;SDS011;53098;47.658;8.578;2023-12-20T03:29:32;12.65;;;6.20;;
66298;SDS011;53098;47.658;8.578;2023-12-20T03:31:58;13.85;;;6.53;;
66298;SDS011;53098;47.658;8.578;2023-12-20T03:34:23;13.98;;;6.88;;
66298;SDS011;53098;47.658;8.578;2023-12-20T03:36:49;14.18;;;6.95;;
66298;SDS011;53098;47.658;8.578;2023-12-20T03:39:14;15.48;;;6.10;;
66298;SDS011;53098;47.658;8.578;2023-12-20T03:41:39;12.68;;;6.20;;
66298;SDS011;53098;47.658;8.578;2023-12-20T03:44:05;14.18;;;6.47;;
66298;SDS011;53098;47.658;8.578;2023-12-20T03:46:30;16.42;;;6.90;;
66298;SDS011;53098;47.658;8.578;2023-12-20T03:48:56;12.60;;;6.70;;
66298;SDS011;53098;47.658;8.578;2023-12-20T03:51:21;12.95;;;5.85;;
66298;SDS011;53098;47.658;8.578;2023-12-20T03:53:46;11.38;;;5.93;;
66298;SDS011;53098;47.658;8.578;2023-12-20T03:56:12;11.23;;;5.95;;
66298;SDS011;53098;47.658;8.578;2023-12-20T03:58:37;15.48;;;6.07;;
66298;SDS011;53098;47.658;8.578;2023-12-20T04:01:02;14.73;;;7.05;;
66298;SDS011;53098;47.658;8.578;2023-12-20T04:03:28;13.80;;;6.80;;
66298;SDS011;53098;47.658;8.578;2023-12-20T04:05:53;14.32;;;6.07;;
66298;SDS011;53098;47.658;8.578;2023-12-20T04:08:19;14.00;;;6.35;;
66298;SDS011;53098;47.658;8.578;2023-12-20T04:10:44;14.07;;;6.57;;
66298;SDS011;53098;47.658;8.578;2023-12-20T04:13:10;13.07;;;6.28;;
66298;SDS011;53098;47.658;8.578;2023-12-20T04:15:35;12.80;;;6.68;;
66298;SDS011;53098;47.658;8.578;2023-12-20T04:18:01;12.43;;;6.55;;
66298;SDS011;53098;47.658;8.578;2023-12-20T04:20:26;13.73;;;7.03;;
66298;SDS011;53098;47.658;8.578;2023-12-20T04:22:51;12.68;;;6.43;;
66298;SDS011;53098;47.658;8.578;2023-12-20T04:25:17;11.88;;;6.15;;
66298;SDS011;53098;47.658;8.578;2023-12-20T04:27:42;14.90;;;7.10;;
66298;SDS011;53098;47.658;8.578;2023-12-20T04:30:08;12.70;;;7.05;;
66298;SDS011;53098;47.658;8.578;2023-12-20T04:32:33;14.35;;;7.05;;
66298;SDS011;53098;47.658;8.578;2023-12-20T04:34:59;12.73;;;6.57;;
66298;SDS011;53098;47.658;8.578;2023-12-20T04:37:24;11.82;;;6.30;;
66298;SDS011;53098;47.658;8.578;2023-12-20T04:39:49;12.90;;;6.63;;
66298;SDS011;53098;47.658;8.578;2023-12-20T04:42:15;12.13;;;6.55;;
66298;SDS011;53098;47.658;8.578;2023-12-20T04:44:40;12.77;;;6.47;;
66298;SDS011;53098;47.658;8.578;2023-12-20T04:47:06;11.48;;;6.28;;
66298;SDS011;53098;47.658;8.578;2023-12-20T04:49:31;12.90;;;5.85;;
66298;SDS011;53098;47.658;8.578;2023-12-20T04:51:56;15.70;;;7.13;;
66298;SDS011;53098;47.658;8.578;2023-12-20T04:54:22;13.68;;;6.80;;
66298;SDS011;53098;47.658;8.578;2023-12-20T04:56:47;13.20;;;6.25;;
66298;SDS011;53098;47.658;8.578;2023-12-20T04:59:13;13.88;;;6.47;;
66298;SDS011;53098;47.658;8.578;2023-12-20T05:01:38;12.88;;;6.57;;
66298;SDS011;53098;47.658;8.578;2023-12-20T05:04:04;13.02;;;5.95;;
66298;SDS011;53098;47.658;8.578;2023-12-20T05:06:29;14.27;;;6.35;;
66298;SDS011;53098;47.658;8.578;2023-12-20T05:08:55;12.50;;;6.57;;
66298;SDS011;53098;47.658;8.578;2023-12-20T05:11:20;14.23;;;7.18;;
66298;SDS011;53098;47.658;8.578;2023-12-20T05:13:45;13.65;;;7.00;;
66298;SDS011;53098;47.658;8.578;2023-12-20T05:16:11;13.35;;;6.50;;
66298;SDS011;53098;47.658;8.578;2023-12-20T05:18:36;11.00;;;6.15;;
66298;SDS011;53098;47.658;8.578;2023-12-20T05:21:02;12.55;;;6.50;;
66298;SDS011;53098;47.658;8.578;2023-12-20T05:23:27;13.48;;;6.88;;
66298;SDS011;53098;47.658;8.578;2023-12-20T05:25:53;15.02;;;6.88;;
66298;SDS011;53098;47.658;8.578;2023-12-20T05:28:18;13.90;;;7.25;;
66298;SDS011;53098;47.658;8.578;2023-12-20T05:30:43;12.15;;;6.15;;
66298;SDS011;53098;47.658;8.578;2023-12-20T05:33:09;10.55;;;5.43;;
66298;SDS011;53098;47.658;8.578;2023-12-20T05:35:34;11.68;;;6.60;;
66298;SDS011;53098;47.658;8.578;2023-12-20T05:38:00;14.30;;;7.45;;
66298;SDS011;53098;47.658;8.578;2023-12-20T05:40:25;11.68;;;6.97;;
66298;SDS011;53098;47.658;8.578;2023-12-20T05:42:51;12.10;;;6.82;;
66298;SDS011;53098;47.658;8.578;2023-12-20T05:45:16;12.55;;;6.90;;
66298;SDS011;53098;47.658;8.578;2023-12-20T05:47:42;11.00;;;6.43;;
66298;SDS011;53098;47.658;8.578;2023-12-20T05:50:07;13.80;;;6.97;;
66298;SDS011;53098;47.658;8.578;2023-12-20T05:52:33;11.45;;;6.25;;
66298;SDS011;53098;47.658;8.578;2023-12-20T05:54:58;11.77;;;6.15;;
66298;SDS011;53098;47.658;8.578;2023-12-20T05:57:24;12.82;;;6.22;;
66298;SDS011;53098;47.658;8.578;2023-12-20T05:59:49;12.13;;;6.13;;
66298;SDS011;53098;47.658;8.578;2023-12-20T06:02:14;8.60;;;4.40;;
66298;SDS011;53098;47.658;8.578;2023-12-20T06:04:41;9.55;;;4.07;;
66298;SDS011;53098;47.658;8.578;2023-12-20T06:07:07;20.60;;;6.85;;
66298;SDS011;53098;47.658;8.578;2023-12-20T06:09:33;14.25;;;6.20;;
66298;SDS011;53098;47.658;8.578;2023-12-20T06:11:58;8.45;;;4.07;;
66298;SDS011;53098;47.658;8.578;2023-12-20T06:14:23;8.77;;;4.20;;
66298;SDS011;53098;47.658;8.578;2023-12-20T06:16:49;9.15;;;3.95;;
66298;SDS011;53098;47.658;8.578;2023-12-20T06:19:14;7.30;;;3.42;;
66298;SDS011;53098;47.658;8.578;2023-12-20T06:21:40;8.30;;;4.07;;
66298;SDS011;53098;47.658;8.578;2023-12-20T06:24:05;9.23;;;4.63;;
66298;SDS011;53098;47.658;8.578;2023-12-20T06:26:30;9.13;;;4.65;;
66298;SDS011;53098;47.658;8.578;2023-12-20T06:28:56;9.43;;;4.30;;
66298;SDS011;53098;47.658;8.578;2023-12-20T06:31:21;11.68;;;5.28;;
66298;SDS011;53098;47.658;8.578;2023-12-20T06:33:47;10.48;;;5.25;;
66298;SDS011;53098;47.658;8.578;2023-12-20T06:36:12;10.85;;;5.35;;
66298;SDS011;53098;47.658;8.578;2023-12-20T06:38:38;9.32;;;4.72;;
66298;SDS011;53098;47.658;8.578;2023-12-20T06:41:04;9.30;;;5.00;;
66298;SDS011;53098;47.658;8.578;2023-12-20T06:43:29;11.82;;;4.93;;
66298;SDS011;53098;47.658;8.578;2023-12-20T06:45:55;9.35;;;5.13;;
66298;SDS011;53098;47.658;8.578;2023-12-20T06:48:20;10.13;;;5.30;;
66298;SDS011;53098;47.658;8.578;2023-12-20T06:50:45;11.43;;;5.70;;
66298;SDS011;53098;47.658;8.578;2023-12-20T06:53:11;12.82;;;7.18;;
66298;SDS011;53098;47.658;8.578;2023-12-20T06:55:36;14.30;;;6.20;;
66298;SDS011;53098;47.658;8.578;2023-12-20T06:58:03;16.63;;;8.05;;
66298;SDS011;53098;47.658;8.578;2023-12-20T07:00:28;12.48;;;6.90;;
66298;SDS011;53098;47.658;8.578;2023-12-20T07:02:54;10.65;;;5.85;;
66298;SDS011;53098;47.658;8.578;2023-12-20T07:05:19;11.55;;;6.45;;
66298;SDS011;53098;47.658;8.578;2023-12-20T07:07:45;12.10;;;6.53;;
66298;SDS011;53098;47.658;8.578;2023-12-20T07:10:11;12.27;;;7.25;;
66298;SDS011;53098;47.658;8.578;2023-12-20T07:12:36;14.85;;;7.95;;
66298;SDS011;53098;47.658;8.578;2023-12-20T07:15:02;11.82;;;6.70;;
66298;SDS011;53098;47.658;8.578;2023-12-20T07:17:27;13.77;;;6.72;;
66298;SDS011;53098;47.658;8.578;2023-12-20T07:19:53;10.50;;;6.05;;
66298;SDS011;53098;47.658;8.578;2023-12-20T07:22:18;11.23;;;6.45;;
66298;SDS011;53098;47.658;8.578;2023-12-20T07:24:44;10.50;;;6.13;;
66298;SDS011;53098;47.658;8.578;2023-12-20T07:27:09;12.95;;;6.63;;
66298;SDS011;53098;47.658;8.578;2023-12-20T07:29:34;12.30;;;6.38;;
66298;SDS011;53098;47.658;8.578;2023-12-20T07:32:00;11.30;;;6.07;;
66298;SDS011;53098;47.658;8.578;2023-12-20T07:34:25;11.70;;;6.30;;
66298;SDS011;53098;47.658;8.578;2023-12-20T07:36:51;12.43;;;6.63;;
66298;SDS011;53098;47.658;8.578;2023-12-20T07:39:16;11.98;;;6.80;;
66298;SDS011;53098;47.658;8.578;2023-12-20T07:41:41;11.27;;;6.10;;
66298;SDS011;53098;47.658;8.578;2023-12-20T07:44:07;10.18;;;5.85;;
66298;SDS011;53098;47.658;8.578;2023-12-20T07:46:32;10.43;;;5.50;;
66298;SDS011;53098;47.658;8.578;2023-12-20T07:48:58;9.27;;;4.82;;
66298;SDS011;53098;47.658;8.578;2023-12-20T07:51:23;10.90;;;5.20;;
66298;SDS011;53098;47.658;8.578;2023-12-20T07:53:48;9.35;;;4.95;;
66298;SDS011;53098;47.658;8.578;2023-12-20T07:56:14;8.40;;;4.53;;
66298;SDS011;53098;47.658;8.578;2023-12-20T07:58:44;9.73;;;5.55;;
66298;SDS011;53098;47.658;8.578;2023-12-20T08:01:10;9.20;;;4.93;;
66298;SDS011;53098;47.658;8.578;2023-12-20T08:03:37;10.30;;;4.70;;
66298;SDS011;53098;47.658;8.578;2023-12-20T08:06:03;8.85;;;4.85;;
66298;SDS011;53098;47.658;8.578;2023-12-20T08:08:29;9.15;;;4.50;;
66298;SDS011;53098;47.658;8.578;2023-12-20T08:10:55;7.20;;;3.65;;
66298;SDS011;53098;47.658;8.578;2023-12-20T08:13:20;6.47;;;3.03;;
66298;SDS011;53098;47.658;8.578;2023-12-20T08:15:46;7.25;;;3.22;;
66298;SDS011;53098;47.658;8.578;2023-12-20T08:18:11;7.70;;;3.70;;
66298;SDS011;53098;47.658;8.578;2023-12-20T08:20:36;6.95;;;3.00;;
66298;SDS011;53098;47.658;8.578;2023-12-20T08:23:02;6.47;;;2.97;;
66298;SDS011;53098;47.658;8.578;2023-12-20T08:25:27;6.60;;;2.90;;
66298;SDS011;53098;47.658;8.578;2023-12-20T08:27:53;5.35;;;2.30;;
66298;SDS011;53098;47.658;8.578;2023-12-20T08:30:18;6.95;;;3.33;;
66298;SDS011;53098;47.658;8.578;2023-12-20T08:32:44;7.60;;;3.90;;
66298;SDS011;53098;47.658;8.578;2023-12-20T08:35:09;9.63;;;3.92;;
66298;SDS011;53098;47.658;8.578;2023-12-20T08:37:34;6.15;;;2.80;;
66298;SDS011;53098;47.658;8.578;2023-12-20T08:40:00;9.35;;;5.00;;
66298;SDS011;53098;47.658;8.578;2023-12-20T08:42:25;10.27;;;4.72;;
66298;SDS011;53098;47.658;8.578;2023-12-20T08:44:51;9.18;;;4.80;;
66298;SDS011;53098;47.658;8.578;2023-12-20T08:47:16;8.32;;;4.22;;
66298;SDS011;53098;47.658;8.578;2023-12-20T08:49:41;9.38;;;5.57;;
66298;SDS011;53098;47.658;8.578;2023-12-20T08:52:07;8.80;;;4.70;;
66298;SDS011;53098;47.658;8.578;2023-12-20T08:54:32;5.82;;;2.70;;
66298;SDS011;53098;47.658;8.578;2023-12-20T08:56:58;5.55;;;2.58;;
66298;SDS011;53098;47.658;8.578;2023-12-20T08:59:23;4.10;;;1.95;;
66298;SDS011;53098;47.658;8.578;2023-12-20T09:01:48;4.53;;;1.95;;
66298;SDS011;53098;47.658;8.578;2023-12-20T09:04:14;4.03;;;1.85;;
66298;SDS011;53098;47.658;8.578;2023-12-20T09:06:39;4.97;;;1.80;;
66298;SDS011;53098;47.658;8.578;2023-12-20T09:09:05;4.25;;;1.70;;
66298;SDS011;53098;47.658;8.578;2023-12-20T09:11:30;5.05;;;2.10;;
66298;SDS011;53098;47.658;8.578;2023-12-20T09:13:55;5.30;;;2.08;;
66298;SDS011;53098;47.658;8.578;2023-12-20T09:16:21;3.15;;;1.60;;
66298;SDS011;53098;47.658;8.578;2023-12-20T09:18:46;4.95;;;1.70;;
66298;SDS011;53098;47.658;8.578;2023-12-20T09:21:12;3.13;;;1.50;;
66298;SDS011;53098;47.658;8.578;2023-12-20T09:23:37;5.18;;;1.40;;
66298;SDS011;53098;47.658;8.578;2023-12-20T09:26:03;2.40;;;1.00;;
66298;SDS011;53098;47.658;8.578;2023-12-20T09:28:28;3.03;;;1.35;;
66298;SDS011;53098;47.658;8.578;2023-12-20T09:30:53;2.92;;;1.23;;
66298;SDS011;53098;47.658;8.578;2023-12-20T09:33:19;3.08;;;1.30;;
66298;SDS011;53098;47.658;8.578;2023-12-20T09:35:44;2.13;;;1.15;;
66298;SDS011;53098;47.658;8.578;2023-12-20T09:38:10;2.72;;;1.20;;
66298;SDS011;53098;47.658;8.578;2023-12-20T09:40:35;2.15;;;1.15;;
66298;SDS011;53098;47.658;8.578;2023-12-20T09:43:08;4.05;;;1.60;;
66298;SDS011;53098;47.658;8.578;2023-12-20T09:45:35;4.47;;;1.50;;
66298;SDS011;53098;47.658;8.578;2023-12-20T09:48:01;4.05;;;1.25;;
66298;SDS011;53098;47.658;8.578;2023-12-20T09:50:28;2.58;;;1.23;;
66298;SDS011;53098;47.658;8.578;2023-12-20T09:52:55;1.58;;;1.10;;
66298;SDS011;53098;47.658;8.578;2023-12-20T09:55:22;1.27;;;1.00;;
66298;SDS011;53098;47.658;8.578;2023-12-20T09:57:50;1.65;;;1.10;;
66298;SDS011;53098;47.658;8.578;2023-12-20T10:00:15;1.38;;;1.05;;
66298;SDS011;53098;47.658;8.578;2023-12-20T10:02:45;1.63;;;0.77;;
66298;SDS011;53098;47.658;8.578;2023-12-20T10:05:18;2.35;;;1.00;;
66298;SDS011;53098;47.658;8.578;2023-12-20T10:07:48;2.55;;;1.10;;
66298;SDS011;53098;47.658;8.578;2023-12-20T10:10:13;1.58;;;0.98;;
66298;SDS011;53098;47.658;8.578;2023-12-20T10:12:39;2.33;;;1.10;;
66298;SDS011;53098;47.658;8.578;2023-12-20T10:15:05;1.10;;;0.70;;
66298;SDS011;53098;47.658;8.578;2023-12-20T10:17:31;2.95;;;1.27;;
66298;SDS011;53098;47.658;8.578;2023-12-20T10:19:57;2.10;;;1.00;;
66298;SDS011;53098;47.658;8.578;2023-12-20T10:22:22;1.20;;;0.70;;
66298;SDS011;53098;47.658;8.578;2023-12-20T10:24:48;1.50;;;0.88;;
66298;SDS011;53098;47.658;8.578;2023-12-20T10:27:13;1.98;;;1.10;;
66298;SDS011;53098;47.658;8.578;2023-12-20T10:29:39;1.65;;;0.90;;
66298;SDS011;53098;47.658;8.578;2023-12-20T10:32:37;1.50;;;0.80;;
66298;SDS011;53098;47.658;8.578;2023-12-20T10:34:56;2.58;;;0.82;;
66298;SDS011;53098;47.658;8.578;2023-12-20T10:37:21;1.50;;;0.98;;
66298;SDS011;53098;47.658;8.578;2023-12-20T10:39:49;1.65;;;0.82;;
66298;SDS011;53098;47.658;8.578;2023-12-20T10:42:16;1.70;;;1.00;;
66298;SDS011;53098;47.658;8.578;2023-12-20T10:44:42;2.25;;;0.95;;
66298;SDS011;53098;47.658;8.578;2023-12-20T10:47:08;1.48;;;0.95;;
66298;SDS011;53098;47.658;8.578;2023-12-20T10:49:36;1.67;;;0.80;;
66298;SDS011;53098;47.658;8.578;2023-12-20T10:52:03;1.88;;;1.13;;
66298;SDS011;53098;47.658;8.578;2023-12-20T10:54:30;1.38;;;0.95;;
66298;SDS011;53098;47.658;8.578;2023-12-20T10:56:56;1.30;;;0.85;;
66298;SDS011;53098;47.658;8.578;2023-12-20T10:59:23;2.35;;;1.05;;
66298;SDS011;53098;47.658;8.578;2023-12-20T11:01:49;1.75;;;0.70;;
66298;SDS011;53098;47.658;8.578;2023-12-20T11:04:15;1.67;;;0.90;;
66298;SDS011;53098;47.658;8.578;2023-12-20T11:06:54;1.08;;;0.77;;
66298;SDS011;53098;47.658;8.578;2023-12-20T11:09:25;2.60;;;1.00;;
66298;SDS011;53098;47.658;8.578;2023-12-20T11:12:06;3.80;;;0.80;;
66298;SDS011;53098;47.658;8.578;2023-12-20T11:14:47;1.98;;;1.02;;
66298;SDS011;53098;47.658;8.578;2023-12-20T11:17:14;2.42;;;1.20;;
66298;SDS011;53098;47.658;8.578;2023-12-20T11:22:17;1.33;;;0.77;;
66298;SDS011;53098;47.658;8.578;2023-12-20T11:24:44;2.42;;;1.27;;
66298;SDS011;53098;47.658;8.578;2023-12-20T11:27:10;0.98;;;0.80;;
66298;SDS011;53098;47.658;8.578;2023-12-20T11:29:36;2.15;;;1.00;;
66298;SDS011;53098;47.658;8.578;2023-12-20T11:32:02;2.38;;;0.98;;
66298;SDS011;53098;47.658;8.578;2023-12-20T11:34:29;2.25;;;0.90;;
66298;SDS011;53098;47.658;8.578;2023-12-20T11:36:58;1.67;;;0.73;;
66298;SDS011;53098;47.658;8.578;2023-12-20T11:39:25;2.97;;;1.10;;
66298;SDS011;53098;47.658;8.578;2023-12-20T11:41:51;3.35;;;0.98;;
66298;SDS011;53098;47.658;8.578;2023-12-20T11:44:17;2.03;;;0.80;;
66298;SDS011;53098;47.658;8.578;2023-12-20T11:46:44;1.83;;;0.90;;
66298;SDS011;53098;47.658;8.578;2023-12-20T11:49:09;1.23;;;0.90;;
66298;SDS011;53098;47.658;8.578;2023-12-20T11:51:35;2.15;;;1.05;;
66298;SDS011;53098;47.658;8.578;2023-12-20T11:54:00;2.50;;;1.02;;
66298;SDS011;53098;47.658;8.578;2023-12-20T11:56:25;1.30;;;0.90;;
66298;SDS011;53098;47.658;8.578;2023-12-20T11:58:51;2.53;;;1.02;;
66298;SDS011;53098;47.658;8.578;2023-12-20T12:01:17;1.17;;;0.75;;
66298;SDS011;53098;47.658;8.578;2023-12-20T12:03:45;1.10;;;0.60;;
66298;SDS011;53098;47.658;8.578;2023-12-20T12:06:10;2.03;;;0.82;;
66298;SDS011;53098;47.658;8.578;2023-12-20T12:08:36;0.95;;;0.80;;
66298;SDS011;53098;47.658;8.578;2023-12-20T12:11:01;2.20;;;0.80;;
66298;SDS011;53098;47.658;8.578;2023-12-20T12:13:27;1.58;;;0.73;;
66298;SDS011;53098;47.658;8.578;2023-12-20T12:15:53;3.10;;;0.90;;
66298;SDS011;53098;47.658;8.578;2023-12-20T12:18:19;10.32;;;1.20;;
66298;SDS011;53098;47.658;8.578;2023-12-20T12:20:44;3.13;;;0.60;;
66298;SDS011;53098;47.658;8.578;2023-12-20T12:23:10;2.38;;;0.98;;
66298;SDS011;53098;47.658;8.578;2023-12-20T12:25:35;2.60;;;1.25;;
66298;SDS011;53098;47.658;8.578;2023-12-20T12:28:01;0.82;;;0.68;;
66298;SDS011;53098;47.658;8.578;2023-12-20T12:30:27;1.35;;;0.85;;
66298;SDS011;53098;47.658;8.578;2023-12-20T13:25:50;3.83;;;1.15;;
66298;SDS011;53098;47.658;8.578;2023-12-20T13:28:16;2.95;;;1.38;;
66298;SDS011;53098;47.658;8.578;2023-12-20T13:30:41;4.37;;;1.13;;
66298;SDS011;53098;47.658;8.578;2023-12-20T13:33:06;5.30;;;1.40;;
66298;SDS011;53098;47.658;8.578;2023-12-20T13:35:32;5.35;;;1.55;;
66298;SDS011;53098;47.658;8.578;2023-12-20T13:37:57;4.97;;;1.70;;
66298;SDS011;53098;47.658;8.578;2023-12-20T13:40:23;7.55;;;1.63;;
66298;SDS011;53098;47.658;8.578;2023-12-20T13:42:48;3.30;;;1.40;;
66298;SDS011;53098;47.658;8.578;2023-12-20T13:45:13;5.17;;;1.60;;
66298;SDS011;53098;47.658;8.578;2023-12-20T13:47:38;4.83;;;1.63;;
66298;SDS011;53098;47.658;8.578;2023-12-20T13:50:04;4.87;;;1.80;;
66298;SDS011;53098;47.658;8.578;2023-12-20T13:52:29;5.50;;;1.98;;
66298;SDS011;53098;47.658;8.578;2023-12-20T13:54:54;4.87;;;1.80;;
66298;SDS011;53098;47.658;8.578;2023-12-20T13:57:20;3.53;;;1.53;;
66298;SDS011;53098;47.658;8.578;2023-12-20T13:59:45;4.70;;;1.70;;
66298;SDS011;53098;47.658;8.578;2023-12-20T14:02:10;3.83;;;1.93;;
66298;SDS011;53098;47.658;8.578;2023-12-20T14:04:35;3.57;;;1.70;;
66298;SDS011;53098;47.658;8.578;2023-12-20T14:07:01;6.03;;;2.10;;
66298;SDS011;53098;47.658;8.578;2023-12-20T14:09:26;5.83;;;2.33;;
66298;SDS011;53098;47.658;8.578;2023-12-20T14:11:51;6.30;;;2.13;;
66298;SDS011;53098;47.658;8.578;2023-12-20T14:14:17;7.73;;;2.70;;
66298;SDS011;53098;47.658;8.578;2023-12-20T14:16:42;6.85;;;2.45;;
66298;SDS011;53098;47.658;8.578;2023-12-20T14:19:07;8.80;;;2.40;;
66298;SDS011;53098;47.658;8.578;2023-12-20T14:21:33;5.87;;;2.30;;
66298;SDS011;53098;47.658;8.578;2023-12-20T14:23:58;5.65;;;2.08;;
66298;SDS011;53098;47.658;8.578;2023-12-20T14:26:23;7.77;;;2.17;;
66298;SDS011;53098;47.658;8.578;2023-12-20T14:28:49;8.55;;;2.42;;
66298;SDS011;53098;47.658;8.578;2023-12-20T14:31:14;7.32;;;2.08;;
66298;SDS011;53098;47.658;8.578;2023-12-20T14:33:39;6.70;;;2.17;;
66298;SDS011;53098;47.658;8.578;2023-12-20T14:36:05;8.37;;;1.87;;
66298;SDS011;53098;47.658;8.578;2023-12-20T14:38:31;8.38;;;1.90;;
66298;SDS011;53098;47.658;8.578;2023-12-20T14:40:56;5.15;;;2.00;;
66298;SDS011;53098;47.658;8.578;2023-12-20T14:43:22;5.57;;;1.98;;
66298;SDS011;53098;47.658;8.578;2023-12-20T14:45:47;6.22;;;1.50;;
66298;SDS011;53098;47.658;8.578;2023-12-20T14:48:12;7.45;;;1.60;;
66298;SDS011;53098;47.658;8.578;2023-12-20T14:50:38;8.67;;;1.93;;
66298;SDS011;53098;47.658;8.578;2023-12-20T14:53:03;7.63;;;1.43;;
66298;SDS011;53098;47.658;8.578;2023-12-20T14:55:28;8.23;;;1.67;;
66298;SDS011;53098;47.658;8.578;2023-12-20T14:57:53;6.17;;;1.10;;
66298;SDS011;53098;47.658;8.578;2023-12-20T15:00:19;3.77;;;1.03;;
66298;SDS011;53098;47.658;8.578;2023-12-20T15:02:45;4.97;;;1.33;;
66298;SDS011;53098;47.658;8.578;2023-12-20T15:05:10;9.27;;;1.45;;
66298;SDS011;53098;47.658;8.578;2023-12-20T15:07:35;4.80;;;1.40;;
66298;SDS011;53098;47.658;8.578;2023-12-20T15:10:01;5.33;;;1.20;;
66298;SDS011;53098;47.658;8.578;2023-12-20T15:12:26;4.83;;;1.37;;
66298;SDS011;53098;47.658;8.578;2023-12-20T15:14:51;7.23;;;1.30;;
66298;SDS011;53098;47.658;8.578;2023-12-20T15:17:16;6.00;;;1.63;;
66298;SDS011;53098;47.658;8.578;2023-12-20T15:19:42;5.47;;;1.07;;
66298;SDS011;53098;47.658;8.578;2023-12-20T15:22:07;6.90;;;1.40;;
66298;SDS011;53098;47.658;8.578;2023-12-20T15:24:32;6.63;;;1.73;;
66298;SDS011;53098;47.658;8.578;2023-12-20T15:26:57;6.23;;;1.30;;
66298;SDS011;53098;47.658;8.578;2023-12-20T15:29:23;8.13;;;1.73;;